Time;durP1;ratioP1;P1;durP2;ratioP2;P2;SDS_P1;SDS_P2;PMS_P1;PMS_P2;Temp;Humidity;BMP_temperature;BMP_pressure;BME280_temperature;BME280_humidity;BME280_pressure;Samples;Min_cycle;Max_cycle;Signal;HPM_P1;HPM_P2
2023/08/11 00:00:22;;;;;;;1.48;0.75;;;18.00;84.50;;;;;;4893296;29;20057;-85
2023/08/11 00:03:10;;;;;;;4.13;1.35;;;18.00;84.60;;;;;;4881917;29;20565;-85
2023/08/11 00:05:45;;;;;;;2.15;0.90;;;18.00;84.70;;;;;;4864602;29;20079;-85
2023/08/11 00:08:14;;;;;;;1.73;0.90;;;17.90;84.90;;;;;;4879621;29;20099;-88
2023/08/11 00:10:41;;;;;;;1.75;0.80;;;17.90;85.10;;;;;;4865277;29;20063;-89
2023/08/11 00:13:12;;;;;;;3.60;1.00;;;17.90;85.20;;;;;;4862981;29;20100;-89
2023/08/11 00:15:40;;;;;;;1.17;0.70;;;17.80;85.30;;;;;;4892043;29;20053;-88
2023/08/11 00:18:10;;;;;;;1.38;0.73;;;17.80;85.50;;;;;;4892179;29;20519;-88
2023/08/11 00:20:38;;;;;;;1.88;0.98;;;17.80;85.50;;;;;;4874012;29;20045;-89
2023/08/11 00:23:07;;;;;;;2.10;0.73;;;17.80;85.70;;;;;;4878685;29;20048;-88
2023/08/11 00:25:36;;;;;;;1.48;0.70;;;17.80;85.80;;;;;;4854963;29;20075;-88
2023/08/11 00:28:06;;;;;;;1.65;0.88;;;17.70;85.90;;;;;;4848319;29;20053;-88
2023/08/11 00:30:33;;;;;;;2.78;1.48;;;17.70;86.00;;;;;;4868349;29;20056;-87
2023/08/11 00:33:00;;;;;;;2.15;1.20;;;17.70;86.20;;;;;;4898805;29;20048;-88
2023/08/11 00:35:28;;;;;;;2.45;1.20;;;17.70;86.30;;;;;;4899038;29;20040;-88
2023/08/11 00:37:58;;;;;;;2.20;1.10;;;17.70;86.40;;;;;;4887160;29;20080;-87
2023/08/11 00:40:26;;;;;;;1.40;0.80;;;17.70;86.50;;;;;;4900627;29;20132;-88
2023/08/11 00:42:53;;;;;;;2.22;0.98;;;17.70;86.60;;;;;;4882256;29;20048;-85
2023/08/11 00:45:22;;;;;;;3.53;1.13;;;17.60;86.70;;;;;;4873398;29;20048;-87
2023/08/11 00:47:50;;;;;;;2.28;1.10;;;17.60;86.80;;;;;;4883276;29;20041;-84
2023/08/11 00:50:25;;;;;;;3.05;1.20;;;17.60;86.90;;;;;;4860190;29;20149;-85
2023/08/11 00:53:00;;;;;;;2.33;1.25;;;17.60;87.10;;;;;;4889748;29;20094;-84
2023/08/11 00:55:34;;;;;;;2.38;1.08;;;17.50;87.10;;;;;;4734188;29;20470;-87
2023/08/11 00:58:02;;;;;;;2.50;1.42;;;17.50;87.30;;;;;;4826437;29;20386;-88
2023/08/11 01:00:29;;;;;;;2.67;1.25;;;17.50;87.40;;;;;;4892966;29;20049;-88
2023/08/11 01:03:02;;;;;;;2.33;1.15;;;17.50;87.50;;;;;;4877790;29;20059;-87
2023/08/11 01:05:34;;;;;;;1.90;1.20;;;17.40;87.50;;;;;;4877173;29;20080;-84
2023/08/11 01:08:13;;;;;;;2.80;1.00;;;17.40;87.60;;;;;;4899372;29;20048;-85
2023/08/11 01:11:04;;;;;;;2.78;1.38;;;17.40;87.70;;;;;;4880498;29;20056;-85
2023/08/11 01:14:08;;;;;;;2.50;1.33;;;17.40;87.80;;;;;;4873918;29;20052;-85
2023/08/11 01:16:37;;;;;;;2.72;1.10;;;17.40;87.80;;;;;;4876770;29;21484;-85
2023/08/11 01:19:12;;;;;;;1.65;1.10;;;17.40;87.90;;;;;;4880835;29;20136;-84
2023/08/11 01:21:40;;;;;;;2.55;1.30;;;17.40;88.00;;;;;;4895107;29;20052;-85
2023/08/11 01:24:08;;;;;;;3.15;1.27;;;17.40;88.00;;;;;;4875033;29;20402;-85
2023/08/11 01:26:37;;;;;;;3.05;1.50;;;17.40;88.10;;;;;;4782881;29;20547;-85
2023/08/11 01:29:26;;;;;;;2.35;1.00;;;17.40;88.20;;;;;;4849736;29;20045;-85
2023/08/11 01:31:53;;;;;;;2.33;1.15;;;17.40;88.30;;;;;;4890615;29;20080;-84
2023/08/11 01:35:05;;;;;;;2.47;1.00;;;17.30;88.30;;;;;;4877087;29;20056;-85
2023/08/11 01:37:32;;;;;;;1.67;0.93;;;17.30;88.30;;;;;;4894849;29;20049;-85
2023/08/11 01:40:39;;;;;;;3.70;1.40;;;17.30;88.50;;;;;;4867577;29;20044;-85
2023/08/11 01:43:13;;;;;;;1.77;1.13;;;17.30;88.50;;;;;;4874406;29;20059;-85
2023/08/11 01:45:43;;;;;;;2.65;1.40;;;17.30;88.60;;;;;;4875695;29;20052;-85
2023/08/11 01:48:11;;;;;;;2.90;1.48;;;17.20;88.60;;;;;;4872461;29;20056;-84
2023/08/11 01:50:41;;;;;;;2.67;1.35;;;17.30;88.80;;;;;;4874885;29;20143;-85
2023/08/11 01:53:13;;;;;;;2.35;1.27;;;17.20;88.90;;;;;;4890833;29;20132;-84
2023/08/11 01:55:42;;;;;;;1.60;0.90;;;17.20;89.60;;;;;;4877991;29;20044;-85
2023/08/11 01:58:19;;;;;;;3.30;1.10;;;17.20;89.10;;;;;;4892686;29;20040;-85
2023/08/11 02:00:48;;;;;;;2.40;1.23;;;17.10;89.10;;;;;;4878209;29;20135;-85
2023/08/11 02:03:22;;;;;;;1.90;1.00;;;17.10;89.20;;;;;;4879182;29;20135;-86
2023/08/11 02:05:50;;;;;;;2.22;1.17;;;17.10;89.30;;;;;;4895532;29;20053;-88
2023/08/11 02:08:18;;;;;;;2.15;1.10;;;17.10;89.40;;;;;;4889281;29;20051;-87
2023/08/11 02:10:46;;;;;;;2.38;1.30;;;17.10;89.50;;;;;;4894700;29;20879;-88
2023/08/11 02:13:13;;;;;;;3.50;1.33;;;17.10;89.60;;;;;;4875933;29;20055;-85
2023/08/11 02:15:41;;;;;;;2.05;1.35;;;17.10;89.70;;;;;;4892199;29;20052;-85
2023/08/11 02:18:18;;;;;;;2.05;1.02;;;17.10;89.80;;;;;;4892091;29;20405;-85
2023/08/11 02:20:45;;;;;;;1.83;1.05;;;17.00;89.80;;;;;;4885467;29;20059;-85
2023/08/11 02:23:13;;;;;;;3.95;1.30;;;17.00;90.00;;;;;;4897150;29;20063;-84
2023/08/11 02:25:40;;;;;;;2.88;1.25;;;16.90;90.00;;;;;;4870383;29;20104;-87
2023/08/11 02:28:07;;;;;;;1.98;1.00;;;16.90;90.00;;;;;;4896768;29;20052;-86
2023/08/11 02:30:39;;;;;;;2.80;1.33;;;16.90;90.10;;;;;;4890893;29;20056;-87
2023/08/11 02:33:13;;;;;;;1.92;1.13;;;16.80;90.10;;;;;;4849189;29;20171;-87
2023/08/11 02:35:42;;;;;;;3.03;1.58;;;16.80;90.20;;;;;;4889198;29;20049;-87
2023/08/11 02:38:09;;;;;;;2.47;1.25;;;16.80;90.20;;;;;;4861081;29;20040;-87
2023/08/11 02:44:38;;;;;;;2.38;1.13;;;16.80;90.20;;;;;;4878003;29;20060;-87
2023/08/11 02:47:43;;;;;;;1.88;1.00;;;16.70;90.30;;;;;;4893235;29;20053;-87
2023/08/11 02:51:02;;;;;;;3.05;1.20;;;16.70;90.30;;;;;;4866439;29;20080;-88
2023/08/11 02:53:30;;;;;;;2.45;1.15;;;16.70;90.40;;;;;;4884010;29;20052;-88
2023/08/11 02:56:01;;;;;;;2.88;1.40;;;16.60;90.40;;;;;;4874453;29;20049;-87
2023/08/11 02:58:28;;;;;;;3.13;1.20;;;16.60;90.50;;;;;;4851726;29;20087;-86
2023/08/11 03:00:56;;;;;;;2.35;1.10;;;16.60;90.50;;;;;;4858900;29;20505;-86
2023/08/11 03:03:23;;;;;;;3.20;1.15;;;16.60;90.60;;;;;;4867684;29;20438;-86
2023/08/11 03:05:51;;;;;;;2.05;1.10;;;16.60;90.60;;;;;;4898621;29;20053;-87
2023/08/11 03:08:18;;;;;;;2.28;1.05;;;16.60;90.60;;;;;;4888193;29;20052;-87
2023/08/11 03:10:46;;;;;;;3.78;1.20;;;16.50;90.70;;;;;;4875460;29;20059;-87
2023/08/11 03:13:28;;;;;;;2.70;1.15;;;16.50;90.70;;;;;;4888846;29;20135;-87
2023/08/11 03:16:15;;;;;;;3.35;1.48;;;16.50;90.70;;;;;;4892770;29;20048;-87
2023/08/11 03:18:43;;;;;;;3.00;1.10;;;16.50;90.70;;;;;;4713729;29;20360;-87
2023/08/11 03:21:11;;;;;;;2.05;1.08;;;16.40;90.80;;;;;;4877868;29;20152;-86
2023/08/11 03:23:48;;;;;;;2.28;1.27;;;16.50;90.90;;;;;;4864616;29;20075;-87
2023/08/11 03:26:17;;;;;;;2.25;1.30;;;16.40;90.80;;;;;;4877574;29;20048;-87
2023/08/11 03:29:23;;;;;;;2.30;1.42;;;16.40;90.90;;;;;;4879240;29;20405;-88
2023/08/11 03:32:38;;;;;;;1.55;0.88;;;16.40;90.80;;;;;;4898834;29;20060;-87
2023/08/11 03:35:06;;;;;;;2.90;1.33;;;16.40;90.90;;;;;;4896150;29;20060;-87
2023/08/11 03:38:13;;;;;;;1.90;1.00;;;16.40;90.90;;;;;;4884062;29;20104;-87
2023/08/11 03:40:40;;;;;;;3.17;1.00;;;16.40;90.90;;;;;;4866060;29;20056;-87
2023/08/11 03:43:08;;;;;;;2.47;1.13;;;16.30;91.00;;;;;;4884095;29;20036;-87
2023/08/11 03:45:37;;;;;;;2.45;1.15;;;16.30;91.00;;;;;;4879602;29;20057;-86
2023/08/11 03:48:12;;;;;;;3.70;1.60;;;16.30;91.10;;;;;;4896738;29;20520;-87
2023/08/11 03:50:39;;;;;;;3.28;1.60;;;16.30;91.10;;;;;;4879220;29;20048;-86
2023/08/11 03:53:09;;;;;;;2.53;1.30;;;16.30;91.10;;;;;;4884416;29;20049;-86
2023/08/11 03:55:38;;;;;;;3.47;1.45;;;16.20;91.20;;;;;;4863606;29;20087;-87
2023/08/11 03:58:06;;;;;;;3.40;1.27;;;16.20;91.20;;;;;;4894902;29;20410;-87
2023/08/11 04:00:34;;;;;;;2.70;1.55;;;16.20;91.20;;;;;;4877449;29;20057;-87
2023/08/11 04:03:14;;;;;;;2.05;1.20;;;16.20;91.30;;;;;;4876313;29;20100;-88
2023/08/11 04:05:42;;;;;;;3.03;1.70;;;16.20;91.30;;;;;;4862879;29;20045;-87
2023/08/11 04:08:12;;;;;;;2.33;1.25;;;16.10;91.30;;;;;;4879561;29;20135;-87
2023/08/11 04:10:42;;;;;;;2.17;1.45;;;16.10;91.40;;;;;;4876270;29;20101;-87
2023/08/11 04:13:12;;;;;;;2.50;1.45;;;16.10;91.40;;;;;;4878130;29;20052;-88
2023/08/11 04:15:42;;;;;;;4.07;1.95;;;16.10;91.40;;;;;;4889813;29;20093;-87
2023/08/11 04:18:10;;;;;;;3.17;1.60;;;16.10;91.40;;;;;;4894860;29;20142;-88
2023/08/11 04:20:37;;;;;;;2.50;1.40;;;16.10;91.40;;;;;;4887641;29;21063;-88
2023/08/11 04:23:06;;;;;;;3.20;1.58;;;16.10;91.40;;;;;;4883319;29;20092;-87
2023/08/11 04:25:53;;;;;;;3.30;1.67;;;16.10;91.40;;;;;;4857919;29;20064;-88
2023/08/11 04:28:23;;;;;;;3.15;1.55;;;16.10;91.40;;;;;;4827184;29;20414;-87
2023/08/11 04:30:55;;;;;;;3.70;1.73;;;16.10;91.50;;;;;;4828487;29;20049;-88
2023/08/11 04:33:25;;;;;;;2.65;1.40;;;16.10;91.50;;;;;;4823519;29;20072;-87
2023/08/11 04:35:53;;;;;;;3.58;1.77;;;16.10;91.50;;;;;;4844993;29;20061;-88
2023/08/11 04:38:20;;;;;;;3.60;1.70;;;16.10;91.50;;;;;;4833209;29;20149;-88
2023/08/11 04:40:51;;;;;;;2.70;1.42;;;16.10;91.60;;;;;;4861585;29;20041;-88
2023/08/11 04:43:19;;;;;;;3.05;1.60;;;16.10;91.60;;;;;;4834098;29;20097;-88
2023/08/11 04:45:47;;;;;;;3.03;1.63;;;16.10;91.60;;;;;;4830730;29;20053;-87
2023/08/11 04:48:16;;;;;;;2.90;1.13;;;16.10;91.60;;;;;;4841641;29;20057;-86
2023/08/11 04:50:52;;;;;;;2.80;1.55;;;16.10;91.60;;;;;;4836062;29;20041;-87
2023/08/11 04:53:21;;;;;;;3.35;1.40;;;16.10;91.60;;;;;;4850257;29;20141;-87
2023/08/11 04:55:49;;;;;;;3.92;1.38;;;16.10;91.60;;;;;;4829621;29;20059;-87
2023/08/11 04:58:16;;;;;;;3.72;2.10;;;16.20;91.70;;;;;;4844234;29;20290;-85
2023/08/11 05:00:46;;;;;;;2.47;1.30;;;16.20;91.60;;;;;;4849439;29;20064;-84
2023/08/11 05:03:13;;;;;;;3.80;1.30;;;16.20;91.60;;;;;;4840509;29;20084;-84
2023/08/11 05:05:45;;;;;;;2.55;1.48;;;16.20;91.60;;;;;;4872702;29;20076;-83
2023/08/11 05:08:12;;;;;;;2.63;1.50;;;16.20;91.60;;;;;;4860410;29;20048;-84
2023/08/11 05:10:42;;;;;;;2.40;1.27;;;16.20;91.60;;;;;;4837915;29;20139;-84
2023/08/11 05:13:32;;;;;;;2.63;1.70;;;16.30;91.70;;;;;;4882708;29;20053;-83
2023/08/11 05:15:59;;;;;;;4.07;2.30;;;16.30;91.60;;;;;;4873294;29;20147;-84
2023/08/11 05:18:26;;;;;;;4.53;1.83;;;16.40;91.60;;;;;;4886822;29;20064;-84
2023/08/11 05:21:09;;;;;;;2.85;1.58;;;16.40;91.60;;;;;;4860452;29;20044;-84
2023/08/11 05:23:36;;;;;;;2.95;1.75;;;16.40;91.50;;;;;;4891029;29;20859;-84
2023/08/11 05:26:06;;;;;;;3.70;1.95;;;16.50;91.50;;;;;;4891685;29;20433;-84
2023/08/11 05:28:33;;;;;;;2.80;1.70;;;16.60;91.50;;;;;;4876019;29;20090;-84
2023/08/11 05:31:01;;;;;;;3.55;2.13;;;16.60;91.50;;;;;;4872655;29;20032;-84
2023/08/11 05:37:24;;;;;;;3.45;2.05;;;16.70;91.40;;;;;;4869547;29;20048;-84
2023/08/11 05:40:10;;;;;;;4.07;1.83;;;16.80;91.30;;;;;;4873462;29;20144;-84
2023/08/11 05:42:40;;;;;;;3.03;2.10;;;16.90;91.30;;;;;;4896314;29;20506;-84
2023/08/11 05:45:08;;;;;;;3.67;1.83;;;16.90;91.20;;;;;;4887742;29;20056;-83
2023/08/11 05:47:35;;;;;;;3.05;1.77;;;17.00;91.20;;;;;;4887859;29;20092;-84
2023/08/11 05:50:06;;;;;;;2.83;1.70;;;17.00;91.10;;;;;;4878258;29;20374;-84
2023/08/11 05:52:35;;;;;;;3.83;2.08;;;17.10;91.10;;;;;;4873116;29;20080;-84
2023/08/11 05:55:02;;;;;;;4.38;1.92;;;17.20;91.00;;;;;;4883600;29;20132;-84
2023/08/11 05:57:49;;;;;;;2.75;1.50;;;17.30;91.00;;;;;;4874949;29;20056;-84
2023/08/11 06:00:18;;;;;;;3.20;2.08;;;17.40;90.90;;;;;;4881105;29;20124;-87
2023/08/11 06:02:46;;;;;;;3.60;1.88;;;17.50;90.80;;;;;;4868707;29;20489;-86
2023/08/11 06:05:15;;;;;;;3.85;1.77;;;17.60;90.70;;;;;;4865535;29;20049;-87
2023/08/11 06:07:42;;;;;;;2.95;1.58;;;17.70;90.60;;;;;;4867130;29;20135;-88
2023/08/11 06:10:22;;;;;;;4.18;2.20;;;17.80;90.90;;;;;;4884825;29;20128;-87
2023/08/11 06:12:49;;;;;;;4.35;2.42;;;17.90;90.50;;;;;;4891764;29;20056;-88
2023/08/11 06:15:16;;;;;;;4.40;2.22;;;18.00;90.70;;;;;;4862103;29;20059;-87
2023/08/11 06:17:49;;;;;;;3.97;2.20;;;18.00;90.30;;;;;;4892312;29;20505;-88
2023/08/11 06:20:17;;;;;;;3.85;2.50;;;18.20;90.20;;;;;;4892015;29;20083;-88
2023/08/11 06:23:00;;;;;;;4.38;1.88;;;18.30;90.10;;;;;;4880214;29;20056;-88
2023/08/11 06:25:30;;;;;;;3.58;2.30;;;18.40;90.00;;;;;;4873184;29;20060;-88
2023/08/11 06:27:57;;;;;;;4.35;2.60;;;18.50;90.00;;;;;;4877297;29;20062;-88
2023/08/11 06:30:27;;;;;;;3.55;1.90;;;18.60;89.70;;;;;;4874441;29;20036;-88
2023/08/11 06:32:57;;;;;;;3.30;1.98;;;18.70;89.50;;;;;;4889393;29;20502;-88
2023/08/11 06:36:11;;;;;;;3.70;1.85;;;18.80;89.30;;;;;;4887790;29;20052;-87
2023/08/11 06:38:38;;;;;;;2.17;1.50;;;18.90;89.00;;;;;;4870750;29;20060;-88
2023/08/11 06:41:07;;;;;;;2.78;1.50;;;19.00;88.80;;;;;;4860126;29;20064;-88
2023/08/11 06:43:36;;;;;;;3.55;2.28;;;19.10;88.60;;;;;;4873679;29;20052;-88
2023/08/11 06:46:03;;;;;;;3.65;1.80;;;19.20;88.40;;;;;;4871359;29;20049;-87
2023/08/11 06:48:31;;;;;;;2.95;1.45;;;19.30;88.20;;;;;;4892154;29;20414;-87
2023/08/11 06:55:25;;;;;;;3.83;1.50;;;19.60;87.80;;;;;;4888199;29;20734;-88
2023/08/11 06:57:52;;;;;;;3.00;1.50;;;19.70;87.60;;;;;;4888363;29;20059;-88
2023/08/11 07:00:20;;;;;;;4.38;2.17;;;19.70;87.40;;;;;;4862783;29;20048;-88
2023/08/11 07:02:48;;;;;;;3.42;1.30;;;19.80;87.20;;;;;;4872838;29;20055;-87
2023/08/11 07:05:17;;;;;;;2.67;1.35;;;19.90;87.10;;;;;;4862452;29;20045;-88
2023/08/11 07:07:57;;;;;;;2.92;1.55;;;20.00;86.90;;;;;;4836218;29;20057;-88
2023/08/11 07:10:24;;;;;;;5.50;1.95;;;20.10;86.60;;;;;;4863364;29;20108;-88
2023/08/11 07:12:57;;;;;;;3.33;1.30;;;20.20;87.20;;;;;;4875405;29;20053;-89
2023/08/11 07:15:26;;;;;;;4.75;1.90;;;20.20;86.30;;;;;;4856837;29;20450;-88
2023/08/11 07:17:55;;;;;;;5.05;1.83;;;20.30;86.10;;;;;;4890338;29;20048;-85
2023/08/11 07:20:22;;;;;;;3.60;1.77;;;20.40;85.90;;;;;;4890260;29;20124;-84
2023/08/11 07:22:52;;;;;;;3.17;1.50;;;20.40;85.80;;;;;;4898006;29;20052;-84
2023/08/11 07:25:22;;;;;;;4.43;2.65;;;20.50;85.50;;;;;;4852276;29;20053;-84
2023/08/11 07:27:49;;;;;;;4.40;2.13;;;20.60;85.30;;;;;;4877358;29;20048;-84
2023/08/11 07:31:00;;;;;;;4.65;1.75;;;20.70;85.20;;;;;;4887770;29;21550;-84
2023/08/11 07:33:27;;;;;;;3.67;2.20;;;20.80;85.00;;;;;;4870216;29;20052;-84
2023/08/11 07:35:54;;;;;;;3.60;1.40;;;20.80;84.80;;;;;;4875984;29;20429;-85
2023/08/11 07:38:21;;;;;;;2.92;1.63;;;20.90;84.70;;;;;;4891738;29;20124;-84
2023/08/11 07:40:49;;;;;;;3.30;1.52;;;21.00;84.50;;;;;;4880151;29;20053;-85
2023/08/11 07:43:16;;;;;;;2.58;1.50;;;21.10;84.30;;;;;;4859060;29;20586;-84
2023/08/11 07:45:43;;;;;;;3.78;2.15;;;21.20;84.10;;;;;;4875871;29;20450;-84
2023/08/11 07:48:13;;;;;;;3.33;1.70;;;21.30;83.90;;;;;;4885490;29;20466;-84
2023/08/11 07:50:40;;;;;;;3.38;1.60;;;21.40;83.60;;;;;;4890474;29;20044;-84
2023/08/11 07:53:07;;;;;;;3.95;1.67;;;21.50;83.40;;;;;;4891395;29;20136;-84
2023/08/11 07:55:38;;;;;;;4.15;1.58;;;21.60;83.20;;;;;;4876666;29;20071;-84
2023/08/11 07:58:06;;;;;;;3.65;1.60;;;21.70;83.00;;;;;;4876223;29;20048;-84
2023/08/11 08:00:34;;;;;;;2.90;1.42;;;21.80;82.90;;;;;;4890180;29;20053;-84
2023/08/11 08:03:01;;;;;;;3.13;1.50;;;21.90;82.70;;;;;;4874125;29;21082;-84
2023/08/11 08:05:28;;;;;;;4.10;1.90;;;21.90;82.50;;;;;;4896499;29;20048;-84
2023/08/11 08:07:55;;;;;;;3.78;1.67;;;22.00;82.30;;;;;;4874568;29;20072;-85
2023/08/11 08:11:09;;;;;;;3.22;1.58;;;22.10;82.10;;;;;;4873746;29;20052;-83
2023/08/11 08:13:45;;;;;;;2.80;1.38;;;22.30;81.80;;;;;;4882368;29;20045;-87
2023/08/11 08:16:16;;;;;;;4.20;1.38;;;22.40;81.70;;;;;;4847162;29;20056;-87
2023/08/11 08:18:51;;;;;;;3.15;1.38;;;22.40;81.60;;;;;;4865370;29;20048;-88
2023/08/11 08:21:18;;;;;;;2.55;1.40;;;22.60;82.00;;;;;;4878843;29;20114;-87
2023/08/11 08:23:47;;;;;;;3.17;1.63;;;22.70;81.20;;;;;;4895397;29;20117;-86
2023/08/11 08:26:34;;;;;;;3.80;1.20;;;22.80;81.00;;;;;;4878196;29;20072;-87
2023/08/11 08:29:04;;;;;;;3.17;0.82;;;22.90;80.70;;;;;;4897361;29;20051;-88
2023/08/11 08:31:32;;;;;;;3.03;1.30;;;22.90;80.70;;;;;;4879253;29;20124;-87
2023/08/11 08:34:02;;;;;;;2.72;1.35;;;23.00;80.40;;;;;;4874991;29;20529;-85
2023/08/11 08:36:29;;;;;;;2.63;1.13;;;23.10;80.30;;;;;;4878912;29;20060;-87
2023/08/11 08:38:57;;;;;;;3.38;1.20;;;23.20;80.10;;;;;;4857771;29;20187;-89
2023/08/11 08:41:31;;;;;;;2.97;1.52;;;23.30;79.90;;;;;;4881418;29;20080;-87
2023/08/11 08:44:00;;;;;;;2.30;1.10;;;23.50;79.50;;;;;;4874637;29;20075;-82
2023/08/11 08:46:29;;;;;;;2.47;1.27;;;23.50;79.20;;;;;;4883678;29;20437;-81
2023/08/11 08:49:19;;;;;;;3.15;1.45;;;23.60;79.10;;;;;;4861090;29;20097;-81
2023/08/11 08:51:50;;;;;;;3.10;1.30;;;23.70;78.80;;;;;;4895822;29;20041;-85
2023/08/11 08:54:17;;;;;;;3.00;1.50;;;23.80;78.70;;;;;;4861385;29;20076;-85
2023/08/11 08:56:45;;;;;;;2.95;1.08;;;23.90;78.40;;;;;;4878272;29;20056;-84
2023/08/11 08:59:13;;;;;;;2.42;1.25;;;24.10;78.30;;;;;;4894289;29;20049;-84
2023/08/11 09:01:41;;;;;;;3.50;1.40;;;24.10;78.00;;;;;;4852575;29;20044;-84
2023/08/11 09:04:10;;;;;;;2.53;1.10;;;24.20;77.90;;;;;;4878217;29;20073;-84
2023/08/11 09:06:38;;;;;;;2.72;1.40;;;24.30;77.70;;;;;;4879662;29;20040;-84
2023/08/11 09:09:10;;;;;;;3.13;1.50;;;24.40;77.50;;;;;;4879383;29;20049;-85
2023/08/11 09:11:40;;;;;;;3.05;1.30;;;24.50;77.20;;;;;;4862944;29;20053;-82
2023/08/11 09:14:08;;;;;;;2.33;1.00;;;24.60;77.00;;;;;;4878068;29;20056;-84
2023/08/11 09:16:40;;;;;;;2.50;0.98;;;24.60;76.80;;;;;;4891738;29;20056;-84
2023/08/11 09:19:15;;;;;;;1.98;0.93;;;24.80;76.60;;;;;;4883172;29;20048;-85
2023/08/11 09:21:45;;;;;;;2.72;1.20;;;24.90;76.30;;;;;;4869335;29;20051;-90
2023/08/11 09:24:15;;;;;;;3.33;1.30;;;24.90;76.00;;;;;;4856197;29;20108;-84
2023/08/11 09:26:50;;;;;;;3.65;1.05;;;25.10;75.90;;;;;;4898116;29;20049;-85
2023/08/11 09:29:19;;;;;;;2.05;1.00;;;25.20;75.60;;;;;;4867456;29;20048;-84
2023/08/11 09:31:53;;;;;;;1.90;1.00;;;25.30;75.50;;;;;;4907144;29;20045;-88
2023/08/11 09:34:22;;;;;;;2.30;0.88;;;25.30;75.30;;;;;;4870513;29;20048;-84
2023/08/11 09:36:49;;;;;;;2.15;1.10;;;25.40;75.20;;;;;;4882428;29;20048;-86
2023/08/11 09:39:17;;;;;;;2.70;1.23;;;25.50;75.00;;;;;;4879113;29;20147;-85
2023/08/11 09:41:47;;;;;;;1.73;0.88;;;25.60;74.70;;;;;;4885668;29;20056;-86
2023/08/11 09:44:18;;;;;;;2.10;0.98;;;25.70;74.50;;;;;;4889219;29;20057;-87
2023/08/11 09:47:18;;;;;;;2.63;1.10;;;25.80;74.40;;;;;;4897581;29;20115;-89
2023/08/11 09:49:47;;;;;;;2.03;0.88;;;25.90;74.10;;;;;;4872658;29;20325;-86
2023/08/11 09:52:15;;;;;;;1.33;0.65;;;26.10;73.90;;;;;;4893158;29;20044;-85
2023/08/11 09:54:43;;;;;;;1.42;0.73;;;26.30;73.60;;;;;;4874494;29;20048;-85
2023/08/11 09:57:13;;;;;;;1.92;0.70;;;26.50;73.00;;;;;;4891115;29;20358;-86
2023/08/11 10:00:19;;;;;;;2.40;1.08;;;26.80;72.60;;;;;;4861619;29;20047;-87
2023/08/11 10:02:52;;;;;;;2.40;0.82;;;27.00;72.10;;;;;;4878526;29;20207;-84
2023/08/11 10:05:19;;;;;;;2.72;0.90;;;26.90;72.10;;;;;;4874308;29;20501;-82
2023/08/11 10:07:53;;;;;;;1.10;0.60;;;26.80;72.20;;;;;;4879772;29;20052;-88
2023/08/11 10:10:22;;;;;;;2.80;1.23;;;26.80;72.10;;;;;;4875366;29;20800;-86
2023/08/11 10:13:00;;;;;;;3.10;1.30;;;26.90;71.00;;;;;;4893179;29;20485;-84
2023/08/11 10:15:30;;;;;;;2.00;1.13;;;27.10;70.70;;;;;;4897270;29;20041;-84
2023/08/11 10:18:02;;;;;;;2.20;1.10;;;27.20;69.50;;;;;;4877053;29;20048;-88
2023/08/11 10:20:30;;;;;;;;;;;27.30;69.10;;;;;;4882513;29;20053;-91
2023/08/11 10:23:00;;;;;;;2.90;0.90;;;27.30;68.30;;;;;;4870898;29;19931;-83
2023/08/11 10:25:28;;;;;;;2.58;1.30;;;27.10;68.60;;;;;;4889226;29;20771;-84
2023/08/11 10:27:56;;;;;;;2.15;1.00;;;27.20;68.50;;;;;;4875349;29;20414;-82
2023/08/11 10:30:42;;;;;;;1.80;1.00;;;27.30;68.20;;;;;;4856362;29;20045;-84
2023/08/11 10:33:10;;;;;;;1.42;0.80;;;27.40;67.40;;;;;;4843133;29;20048;-88
2023/08/11 10:36:17;;;;;;;2.78;1.02;;;27.60;67.40;;;;;;4877953;29;20284;-88
2023/08/11 10:39:03;;;;;;;2.25;0.70;;;27.90;66.90;;;;;;4900598;29;20405;-88
2023/08/11 10:41:34;;;;;;;2.38;0.60;;;27.90;66.80;;;;;;4844486;29;20417;-92
2023/08/11 10:44:12;;;;;;;1.58;0.80;;;27.80;66.60;;;;;;4884970;29;20139;-92
2023/08/11 10:46:56;;;;;;;;;;;27.70;66.80;;;;;;4890630;29;20084;-84
2023/08/11 10:49:49;;;;;;;3.42;1.25;;;27.70;66.90;;;;;;4881424;29;19983;-93
2023/08/11 10:53:08;;;;;;;1.90;0.80;;;28.00;65.80;;;;;;4873990;29;20535;-91
2023/08/11 10:55:54;;;;;;;2.10;1.27;;;28.20;65.20;;;;;;4880439;29;20076;-83
2023/08/11 10:58:25;;;;;;;2.13;1.10;;;28.50;64.40;;;;;;4891778;29;20444;-88
2023/08/11 11:01:29;;;;;;;2.33;0.77;;;28.60;64.10;;;;;;4864916;29;20131;-92
2023/08/11 11:04:35;;;;;;;1.02;0.60;;;28.90;63.80;;;;;;4861596;29;20049;-90
2023/08/11 11:07:02;;;;;;;2.60;1.05;;;29.20;63.20;;;;;;4881148;29;20384;-81
2023/08/11 11:09:30;;;;;;;2.92;0.88;;;29.40;63.50;;;;;;4878197;29;20108;-85
2023/08/11 11:11:57;;;;;;;2.15;1.00;;;29.60;62.30;;;;;;4887219;29;20073;-84
2023/08/11 11:14:25;;;;;;;1.67;0.80;;;29.70;61.90;;;;;;4532254;29;20577;-81
2023/08/11 11:16:58;;;;;;;2.28;0.90;;;29.70;61.30;;;;;;4866783;29;20405;-87
2023/08/11 11:19:26;;;;;;;2.33;0.85;;;29.70;61.20;;;;;;4872449;29;20056;-86
2023/08/11 11:21:54;;;;;;;2.28;0.80;;;29.90;60.70;;;;;;4794735;29;20060;-82
2023/08/11 11:24:21;;;;;;;2.13;1.13;;;30.10;60.30;;;;;;4883802;29;20401;-83
2023/08/11 11:26:51;;;;;;;1.85;0.90;;;30.30;59.90;;;;;;4846966;29;20045;-82
2023/08/11 11:29:28;;;;;;;2.00;0.90;;;30.20;59.40;;;;;;4843250;29;20068;-86
2023/08/11 11:31:56;;;;;;;1.88;0.93;;;30.20;58.90;;;;;;4809615;29;20055;-93
2023/08/11 11:34:24;;;;;;;2.05;0.80;;;30.30;59.50;;;;;;4891648;29;20076;-88
2023/08/11 11:36:54;;;;;;;1.65;0.65;;;30.40;58.80;;;;;;4861713;29;20140;-85
2023/08/11 11:39:22;;;;;;;1.83;0.80;;;30.60;58.60;;;;;;4892724;29;20405;-86
2023/08/11 11:41:49;;;;;;;2.00;0.90;;;30.60;58.10;;;;;;4895169;29;20054;-89
2023/08/11 11:44:17;;;;;;;3.58;1.00;;;30.60;57.40;;;;;;4878287;29;20052;-88
2023/08/11 11:46:47;;;;;;;1.80;0.80;;;30.60;57.30;;;;;;4810747;29;20576;-89
2023/08/11 11:49:16;;;;;;;1.50;0.70;;;30.80;57.40;;;;;;4844637;29;20052;-90
2023/08/11 11:51:56;;;;;;;1.23;0.65;;;31.00;57.40;;;;;;4868740;29;20490;-92
2023/08/11 11:54:27;;;;;;;2.47;0.88;;;31.20;57.20;;;;;;4898595;29;20144;-89
2023/08/11 11:56:57;;;;;;;1.45;0.68;;;31.30;56.40;;;;;;4886743;29;20047;-89
2023/08/11 12:00:16;;;;;;;1.63;0.77;;;31.40;56.60;;;;;;4878438;29;20519;-88
2023/08/11 12:02:44;;;;;;;2.15;1.00;;;31.60;56.20;;;;;;4898997;29;20495;-89
2023/08/11 12:05:14;;;;;;;3.33;1.13;;;31.50;55.40;;;;;;4879072;29;20504;-83
2023/08/11 12:07:41;;;;;;;1.95;0.90;;;31.40;54.90;;;;;;4871743;29;20049;-90
2023/08/11 12:10:09;;;;;;;2.30;0.93;;;31.40;54.70;;;;;;4897148;29;20040;-88
2023/08/11 12:12:44;;;;;;;1.92;0.80;;;31.40;55.10;;;;;;4882049;29;20131;-87
2023/08/11 12:15:17;;;;;;;3.53;1.10;;;31.50;54.80;;;;;;4651922;29;20884;-84
2023/08/11 12:17:53;;;;;;;;;;;31.60;54.60;;;;;;4892634;29;20132;-86
2023/08/11 12:20:24;;;;;;;2.35;1.02;;;31.90;54.90;;;;;;4814377;29;19986;-85
2023/08/11 12:22:51;;;;;;;2.45;1.05;;;32.00;54.00;;;;;;4860840;29;20408;-88
2023/08/11 12:25:18;;;;;;;1.80;0.90;;;32.00;53.70;;;;;;4847536;29;20083;-84
2023/08/11 12:27:48;;;;;;;1.63;0.90;;;32.10;53.70;;;;;;4899100;29;20096;-85
2023/08/11 12:30:20;;;;;;;1.67;0.70;;;32.30;53.70;;;;;;4872646;29;20478;-84
2023/08/11 12:32:48;;;;;;;1.80;0.82;;;32.60;53.50;;;;;;4868744;29;20053;-85
2023/08/11 12:35:34;;;;;;;1.67;0.75;;;32.90;53.50;;;;;;4875763;29;20139;-83
2023/08/11 12:38:02;;;;;;;1.65;0.70;;;33.20;53.40;;;;;;4879578;29;20059;-80
2023/08/11 12:40:30;;;;;;;1.30;0.60;;;33.40;53.30;;;;;;4883137;29;20052;-81
2023/08/11 12:42:57;;;;;;;1.20;0.70;;;33.30;53.30;;;;;;4899263;29;20048;-83
2023/08/11 12:46:36;;;;;;;3.00;0.80;;;33.10;53.70;;;;;;4877151;29;20056;-82
2023/08/11 12:49:04;;;;;;;1.40;0.73;;;33.50;53.60;;;;;;4874870;29;20073;-80
2023/08/11 12:51:34;;;;;;;1.70;0.90;;;33.80;53.20;;;;;;4861834;29;20172;-82
2023/08/11 12:54:02;;;;;;;1.40;0.70;;;34.00;53.10;;;;;;4865225;29;20060;-82
2023/08/11 12:56:31;;;;;;;2.25;0.68;;;34.10;52.70;;;;;;4863986;29;20049;-82
2023/08/11 12:58:59;;;;;;;1.50;0.65;;;34.10;52.70;;;;;;4860322;29;20064;-82
2023/08/11 13:01:26;;;;;;;2.03;0.60;;;34.10;52.40;;;;;;4656867;29;20048;-83
2023/08/11 13:03:57;;;;;;;1.25;0.68;;;34.20;52.40;;;;;;4877221;29;20076;-82
2023/08/11 13:06:25;;;;;;;;;;;34.40;52.30;;;;;;4850525;29;20045;-86
2023/08/11 13:08:54;;;;;;;1.20;0.50;;;34.60;52.50;;;;;;4892824;29;19927;-86
2023/08/11 13:11:21;;;;;;;1.45;0.60;;;34.50;52.20;;;;;;4876859;29;20057;-86
2023/08/11 13:13:48;;;;;;;0.90;0.52;;;34.80;52.20;;;;;;4876724;29;20053;-82
2023/08/11 13:16:18;;;;;;;1.58;0.68;;;34.90;52.00;;;;;;4891279;29;20056;-84
2023/08/11 13:18:46;;;;;;;1.02;0.70;;;34.90;51.50;;;;;;4877824;29;20049;-85
2023/08/11 13:21:13;;;;;;;1.52;0.50;;;34.70;51.80;;;;;;4892118;29;20060;-86
2023/08/11 13:23:40;;;;;;;2.08;0.75;;;34.20;51.90;;;;;;4862058;29;20148;-87
2023/08/11 13:26:07;;;;;;;1.55;0.73;;;33.60;52.70;;;;;;4846822;29;20057;-85
2023/08/11 13:28:34;;;;;;;1.50;0.68;;;33.00;53.40;;;;;;4864261;29;20040;-84